sensor_id;sensor_type;location;lat;lon;timestamp;P1;durP1;ratioP1;P2;durP2;ratioP2
82637;SDS011;72318;36.628;-121.932;2023-11-21T00:00:23;9.60;;;0.45;;
82637;SDS011;72318;36.628;-121.932;2023-11-21T00:02:50;6.70;;;0.60;;
82637;SDS011;72318;36.628;-121.932;2023-11-21T00:05:16;6.40;;;0.50;;
82637;SDS011;72318;36.628;-121.932;2023-11-21T00:07:42;8.57;;;0.50;;
82637;SDS011;72318;36.628;-121.932;2023-11-21T00:10:09;8.15;;;0.60;;
82637;SDS011;72318;36.628;-121.932;2023-11-21T00:12:37;9.27;;;0.03;;
82637;SDS011;72318;36.628;-121.932;2023-11-21T00:15:03;3.88;;;0.30;;
82637;SDS011;72318;36.628;-121.932;2023-11-21T00:17:39;2.85;;;0.00;;
82637;SDS011;72318;36.628;-121.932;2023-11-21T00:20:06;2.72;;;0.10;;
82637;SDS011;72318;36.628;-121.932;2023-11-21T00:22:36;6.03;;;0.30;;
82637;SDS011;72318;36.628;-121.932;2023-11-21T00:25:02;3.78;;;0.10;;
82637;SDS011;72318;36.628;-121.932;2023-11-21T00:27:31;2.70;;;0.00;;
82637;SDS011;72318;36.628;-121.932;2023-11-21T00:29:57;6.15;;;0.20;;
82637;SDS011;72318;36.628;-121.932;2023-11-21T00:32:24;4.13;;;0.00;;
82637;SDS011;72318;36.628;-121.932;2023-11-21T00:34:50;2.85;;;0.30;;
82637;SDS011;72318;36.628;-121.932;2023-11-21T00:37:16;4.50;;;0.20;;
82637;SDS011;72318;36.628;-121.932;2023-11-21T00:39:42;7.03;;;0.30;;
82637;SDS011;72318;36.628;-121.932;2023-11-21T00:42:09;9.60;;;0.40;;
82637;SDS011;72318;36.628;-121.932;2023-11-21T00:44:37;6.35;;;0.50;;
82637;SDS011;72318;36.628;-121.932;2023-11-21T00:47:04;6.38;;;0.22;;
82637;SDS011;72318;36.628;-121.932;2023-11-21T00:49:31;5.00;;;0.63;;
82637;SDS011;72318;36.628;-121.932;2023-11-21T00:51:57;5.43;;;0.30;;
82637;SDS011;72318;36.628;-121.932;2023-11-21T00:54:23;6.65;;;0.25;;
82637;SDS011;72318;36.628;-121.932;2023-11-21T00:56:50;5.82;;;0.32;;
82637;SDS011;72318;36.628;-121.932;2023-11-21T00:59:16;7.00;;;0.52;;
82637;SDS011;72318;36.628;-121.932;2023-11-21T01:01:42;5.07;;;0.38;;
82637;SDS011;72318;36.628;-121.932;2023-11-21T01:04:09;4.53;;;0.55;;
82637;SDS011;72318;36.628;-121.932;2023-11-21T01:06:36;6.88;;;0.80;;
82637;SDS011;72318;36.628;-121.932;2023-11-21T01:09:02;5.93;;;0.52;;
82637;SDS011;72318;36.628;-121.932;2023-11-21T01:11:34;6.10;;;0.30;;
82637;SDS011;72318;36.628;-121.932;2023-11-21T01:14:03;2.28;;;0.40;;
82637;SDS011;72318;36.628;-121.932;2023-11-21T01:16:30;6.93;;;0.80;;
82637;SDS011;72318;36.628;-121.932;2023-11-21T01:18:58;5.03;;;0.60;;
82637;SDS011;72318;36.628;-121.932;2023-11-21T01:21:25;6.00;;;0.63;;
82637;SDS011;72318;36.628;-121.932;2023-11-21T01:23:53;8.07;;;0.68;;
82637;SDS011;72318;36.628;-121.932;2023-11-21T01:26:20;10.95;;;1.55;;
82637;SDS011;72318;36.628;-121.932;2023-11-21T01:28:47;11.30;;;0.85;;
82637;SDS011;72318;36.628;-121.932;2023-11-21T01:31:14;11.50;;;0.98;;
82637;SDS011;72318;36.628;-121.932;2023-11-21T01:33:41;10.45;;;0.85;;
82637;SDS011;72318;36.628;-121.932;2023-11-21T01:36:07;8.38;;;0.75;;
82637;SDS011;72318;36.628;-121.932;2023-11-21T01:38:34;9.73;;;0.80;;
82637;SDS011;72318;36.628;-121.932;2023-11-21T01:41:00;7.30;;;0.63;;
82637;SDS011;72318;36.628;-121.932;2023-11-21T01:43:27;4.70;;;0.50;;
82637;SDS011;72318;36.628;-121.932;2023-11-21T01:45:57;6.30;;;0.47;;
82637;SDS011;72318;36.628;-121.932;2023-11-21T01:48:23;4.50;;;0.30;;
82637;SDS011;72318;36.628;-121.932;2023-11-21T01:50:51;5.63;;;0.70;;
82637;SDS011;72318;36.628;-121.932;2023-11-21T01:53:17;6.20;;;1.63;;
82637;SDS011;72318;36.628;-121.932;2023-11-21T01:55:44;6.00;;;0.73;;
82637;SDS011;72318;36.628;-121.932;2023-11-21T01:58:11;10.60;;;4.18;;
82637;SDS011;72318;36.628;-121.932;2023-11-21T02:00:39;8.35;;;1.17;;
82637;SDS011;72318;36.628;-121.932;2023-11-21T02:03:08;8.50;;;0.93;;
82637;SDS011;72318;36.628;-121.932;2023-11-21T02:05:35;7.25;;;0.73;;
82637;SDS011;72318;36.628;-121.932;2023-11-21T02:08:02;4.65;;;1.05;;
82637;SDS011;72318;36.628;-121.932;2023-11-21T02:10:30;3.40;;;0.93;;
82637;SDS011;72318;36.628;-121.932;2023-11-21T02:12:56;4.88;;;0.50;;
82637;SDS011;72318;36.628;-121.932;2023-11-21T02:15:24;7.70;;;0.60;;
82637;SDS011;72318;36.628;-121.932;2023-11-21T02:17:54;3.28;;;0.38;;
82637;SDS011;72318;36.628;-121.932;2023-11-21T02:20:21;3.50;;;0.50;;
82637;SDS011;72318;36.628;-121.932;2023-11-21T02:25:25;6.68;;;1.15;;
82637;SDS011;72318;36.628;-121.932;2023-11-21T02:27:56;6.85;;;0.77;;
82637;SDS011;72318;36.628;-121.932;2023-11-21T02:30:23;6.15;;;0.98;;
82637;SDS011;72318;36.628;-121.932;2023-11-21T02:32:50;6.57;;;1.38;;
82637;SDS011;72318;36.628;-121.932;2023-11-21T02:35:20;4.75;;;0.60;;
82637;SDS011;72318;36.628;-121.932;2023-11-21T02:37:47;3.90;;;0.88;;
82637;SDS011;72318;36.628;-121.932;2023-11-21T02:40:13;4.68;;;0.82;;
82637;SDS011;72318;36.628;-121.932;2023-11-21T02:42:43;4.15;;;0.22;;
82637;SDS011;72318;36.628;-121.932;2023-11-21T02:45:10;3.85;;;0.43;;
82637;SDS011;72318;36.628;-121.932;2023-11-21T02:47:42;5.38;;;0.50;;
82637;SDS011;72318;36.628;-121.932;2023-11-21T02:50:11;5.38;;;1.25;;
82637;SDS011;72318;36.628;-121.932;2023-11-21T02:52:38;8.70;;;2.40;;
82637;SDS011;72318;36.628;-121.932;2023-11-21T02:55:08;5.63;;;1.27;;
82637;SDS011;72318;36.628;-121.932;2023-11-21T02:57:34;4.00;;;1.10;;
82637;SDS011;72318;36.628;-121.932;2023-11-21T03:00:00;9.50;;;1.35;;
82637;SDS011;72318;36.628;-121.932;2023-11-21T03:02:27;4.50;;;0.80;;
82637;SDS011;72318;36.628;-121.932;2023-11-21T03:04:53;4.13;;;0.13;;
82637;SDS011;72318;36.628;-121.932;2023-11-21T03:07:20;4.72;;;0.28;;
82637;SDS011;72318;36.628;-121.932;2023-11-21T03:09:47;3.83;;;0.15;;
82637;SDS011;72318;36.628;-121.932;2023-11-21T03:12:13;4.28;;;0.22;;
82637;SDS011;72318;36.628;-121.932;2023-11-21T03:14:40;4.45;;;0.40;;
82637;SDS011;72318;36.628;-121.932;2023-11-21T03:17:06;3.88;;;0.22;;
82637;SDS011;72318;36.628;-121.932;2023-11-21T03:19:32;2.58;;;0.13;;
82637;SDS011;72318;36.628;-121.932;2023-11-21T03:21:59;3.20;;;0.20;;
82637;SDS011;72318;36.628;-121.932;2023-11-21T03:24:25;4.85;;;0.30;;
82637;SDS011;72318;36.628;-121.932;2023-11-21T03:26:51;7.75;;;0.68;;
82637;SDS011;72318;36.628;-121.932;2023-11-21T03:29:19;5.95;;;1.02;;
82637;SDS011;72318;36.628;-121.932;2023-11-21T03:31:45;8.65;;;1.55;;
82637;SDS011;72318;36.628;-121.932;2023-11-21T03:34:15;10.73;;;1.63;;
82637;SDS011;72318;36.628;-121.932;2023-11-21T03:36:48;17.45;;;3.22;;
82637;SDS011;72318;36.628;-121.932;2023-11-21T03:39:14;12.02;;;4.07;;
82637;SDS011;72318;36.628;-121.932;2023-11-21T03:41:41;14.38;;;5.50;;
82637;SDS011;72318;36.628;-121.932;2023-11-21T03:44:08;20.77;;;5.22;;
82637;SDS011;72318;36.628;-121.932;2023-11-21T03:46:34;13.82;;;5.60;;
82637;SDS011;72318;36.628;-121.932;2023-11-21T03:49:00;11.73;;;2.83;;
82637;SDS011;72318;36.628;-121.932;2023-11-21T03:51:26;10.40;;;3.97;;
82637;SDS011;72318;36.628;-121.932;2023-11-21T03:53:53;8.68;;;2.55;;
82637;SDS011;72318;36.628;-121.932;2023-11-21T03:56:19;8.73;;;1.77;;
82637;SDS011;72318;36.628;-121.932;2023-11-21T03:58:48;7.70;;;0.95;;
82637;SDS011;72318;36.628;-121.932;2023-11-21T04:01:32;8.48;;;1.60;;
82637;SDS011;72318;36.628;-121.932;2023-11-21T04:03:58;10.45;;;1.30;;
82637;SDS011;72318;36.628;-121.932;2023-11-21T04:06:25;11.48;;;1.30;;
82637;SDS011;72318;36.628;-121.932;2023-11-21T04:08:51;11.77;;;1.15;;
82637;SDS011;72318;36.628;-121.932;2023-11-21T04:11:17;5.32;;;1.08;;
82637;SDS011;72318;36.628;-121.932;2023-11-21T04:13:43;5.93;;;0.98;;
82637;SDS011;72318;36.628;-121.932;2023-11-21T04:16:11;12.65;;;2.00;;
82637;SDS011;72318;36.628;-121.932;2023-11-21T04:18:38;8.80;;;1.02;;
82637;SDS011;72318;36.628;-121.932;2023-11-21T04:21:05;10.55;;;2.25;;
82637;SDS011;72318;36.628;-121.932;2023-11-21T04:23:31;12.57;;;1.88;;
82637;SDS011;72318;36.628;-121.932;2023-11-21T04:25:57;11.98;;;1.98;;
82637;SDS011;72318;36.628;-121.932;2023-11-21T04:28:24;12.75;;;2.25;;
82637;SDS011;72318;36.628;-121.932;2023-11-21T04:30:50;12.43;;;2.30;;
82637;SDS011;72318;36.628;-121.932;2023-11-21T04:33:17;14.18;;;2.40;;
82637;SDS011;72318;36.628;-121.932;2023-11-21T04:35:43;8.80;;;1.35;;
82637;SDS011;72318;36.628;-121.932;2023-11-21T04:38:09;10.23;;;2.10;;
82637;SDS011;72318;36.628;-121.932;2023-11-21T04:40:35;12.98;;;3.08;;
82637;SDS011;72318;36.628;-121.932;2023-11-21T04:43:02;15.00;;;2.45;;
82637;SDS011;72318;36.628;-121.932;2023-11-21T04:45:30;10.63;;;3.17;;
82637;SDS011;72318;36.628;-121.932;2023-11-21T04:47:57;11.25;;;1.25;;
82637;SDS011;72318;36.628;-121.932;2023-11-21T04:50:24;16.88;;;2.10;;
82637;SDS011;72318;36.628;-121.932;2023-11-21T04:52:52;12.50;;;2.10;;
82637;SDS011;72318;36.628;-121.932;2023-11-21T04:55:19;12.93;;;1.80;;
82637;SDS011;72318;36.628;-121.932;2023-11-21T04:57:45;12.68;;;1.55;;
82637;SDS011;72318;36.628;-121.932;2023-11-21T05:00:12;17.00;;;2.63;;
82637;SDS011;72318;36.628;-121.932;2023-11-21T05:02:40;19.98;;;2.17;;
82637;SDS011;72318;36.628;-121.932;2023-11-21T05:05:07;12.30;;;1.98;;
82637;SDS011;72318;36.628;-121.932;2023-11-21T05:07:35;11.30;;;2.08;;
82637;SDS011;72318;36.628;-121.932;2023-11-21T05:10:03;13.15;;;2.22;;
82637;SDS011;72318;36.628;-121.932;2023-11-21T05:12:37;13.90;;;1.70;;
82637;SDS011;72318;36.628;-121.932;2023-11-21T05:15:04;12.55;;;2.65;;
82637;SDS011;72318;36.628;-121.932;2023-11-21T05:17:38;9.75;;;1.92;;
82637;SDS011;72318;36.628;-121.932;2023-11-21T05:20:07;19.42;;;4.00;;
82637;SDS011;72318;36.628;-121.932;2023-11-21T05:22:35;22.80;;;3.72;;
82637;SDS011;72318;36.628;-121.932;2023-11-21T05:25:02;21.25;;;5.38;;
82637;SDS011;72318;36.628;-121.932;2023-11-21T05:27:29;22.35;;;4.63;;
82637;SDS011;72318;36.628;-121.932;2023-11-21T05:29:56;26.42;;;4.18;;
82637;SDS011;72318;36.628;-121.932;2023-11-21T05:32:23;15.80;;;4.07;;
82637;SDS011;72318;36.628;-121.932;2023-11-21T05:34:51;19.30;;;4.32;;
82637;SDS011;72318;36.628;-121.932;2023-11-21T05:37:17;15.45;;;6.07;;
82637;SDS011;72318;36.628;-121.932;2023-11-21T05:39:44;16.85;;;6.97;;
82637;SDS011;72318;36.628;-121.932;2023-11-21T05:42:10;16.48;;;5.72;;
82637;SDS011;72318;36.628;-121.932;2023-11-21T05:44:37;11.98;;;3.72;;
82637;SDS011;72318;36.628;-121.932;2023-11-21T05:47:09;12.38;;;3.40;;
82637;SDS011;72318;36.628;-121.932;2023-11-21T05:49:36;15.95;;;3.97;;
82637;SDS011;72318;36.628;-121.932;2023-11-21T05:52:03;14.85;;;4.63;;
82637;SDS011;72318;36.628;-121.932;2023-11-21T05:54:30;17.27;;;4.43;;
82637;SDS011;72318;36.628;-121.932;2023-11-21T05:56:57;21.15;;;10.10;;
82637;SDS011;72318;36.628;-121.932;2023-11-21T05:59:23;19.83;;;12.38;;
82637;SDS011;72318;36.628;-121.932;2023-11-21T06:01:50;14.95;;;6.45;;
82637;SDS011;72318;36.628;-121.932;2023-11-21T06:04:17;12.30;;;4.05;;
82637;SDS011;72318;36.628;-121.932;2023-11-21T06:06:44;10.77;;;4.13;;
82637;SDS011;72318;36.628;-121.932;2023-11-21T06:11:05;14.82;;;4.20;;
82637;SDS011;72318;36.628;-121.932;2023-11-21T06:13:31;15.27;;;5.70;;
82637;SDS011;72318;36.628;-121.932;2023-11-21T06:15:58;11.65;;;4.72;;
82637;SDS011;72318;36.628;-121.932;2023-11-21T06:18:25;11.30;;;3.42;;
82637;SDS011;72318;36.628;-121.932;2023-11-21T06:20:52;12.38;;;4.18;;
82637;SDS011;72318;36.628;-121.932;2023-11-21T06:23:20;19.88;;;6.15;;
82637;SDS011;72318;36.628;-121.932;2023-11-21T06:25:47;10.48;;;4.45;;
82637;SDS011;72318;36.628;-121.932;2023-11-21T06:28:13;14.23;;;4.45;;
82637;SDS011;72318;36.628;-121.932;2023-11-21T06:30:43;16.33;;;4.70;;
82637;SDS011;72318;36.628;-121.932;2023-11-21T06:33:10;13.02;;;4.90;;
82637;SDS011;72318;36.628;-121.932;2023-11-21T06:35:36;13.88;;;4.97;;
82637;SDS011;72318;36.628;-121.932;2023-11-21T06:38:03;17.15;;;5.53;;
82637;SDS011;72318;36.628;-121.932;2023-11-21T06:40:29;12.85;;;4.15;;
82637;SDS011;72318;36.628;-121.932;2023-11-21T06:42:59;10.32;;;2.60;;
82637;SDS011;72318;36.628;-121.932;2023-11-21T06:45:26;7.13;;;2.35;;
82637;SDS011;72318;36.628;-121.932;2023-11-21T06:48:02;14.90;;;5.28;;
82637;SDS011;72318;36.628;-121.932;2023-11-21T06:50:29;11.90;;;3.30;;
82637;SDS011;72318;36.628;-121.932;2023-11-21T06:52:55;9.45;;;2.65;;
82637;SDS011;72318;36.628;-121.932;2023-11-21T06:55:22;7.63;;;1.98;;
82637;SDS011;72318;36.628;-121.932;2023-11-21T06:57:48;6.13;;;2.35;;
82637;SDS011;72318;36.628;-121.932;2023-11-21T07:00:15;9.98;;;4.18;;
82637;SDS011;72318;36.628;-121.932;2023-11-21T07:02:46;4.35;;;1.40;;
82637;SDS011;72318;36.628;-121.932;2023-11-21T07:05:12;4.05;;;1.23;;
82637;SDS011;72318;36.628;-121.932;2023-11-21T07:07:40;3.35;;;1.20;;
82637;SDS011;72318;36.628;-121.932;2023-11-21T07:10:07;2.83;;;1.33;;
82637;SDS011;72318;36.628;-121.932;2023-11-21T07:12:33;5.38;;;2.53;;
82637;SDS011;72318;36.628;-121.932;2023-11-21T07:15:00;9.05;;;5.05;;
82637;SDS011;72318;36.628;-121.932;2023-11-21T07:17:27;13.43;;;7.55;;
82637;SDS011;72318;36.628;-121.932;2023-11-21T07:19:54;14.30;;;9.80;;
82637;SDS011;72318;36.628;-121.932;2023-11-21T07:22:20;14.85;;;7.35;;
82637;SDS011;72318;36.628;-121.932;2023-11-21T07:24:50;14.45;;;6.68;;
82637;SDS011;72318;36.628;-121.932;2023-11-21T07:27:17;12.82;;;4.75;;
82637;SDS011;72318;36.628;-121.932;2023-11-21T07:29:46;4.40;;;0.40;;
82637;SDS011;72318;36.628;-121.932;2023-11-21T07:32:13;4.18;;;1.23;;
82637;SDS011;72318;36.628;-121.932;2023-11-21T07:34:40;4.50;;;0.52;;
82637;SDS011;72318;36.628;-121.932;2023-11-21T07:37:07;3.42;;;0.40;;
82637;SDS011;72318;36.628;-121.932;2023-11-21T07:39:36;2.30;;;0.65;;
82637;SDS011;72318;36.628;-121.932;2023-11-21T07:42:07;2.22;;;0.57;;
82637;SDS011;72318;36.628;-121.932;2023-11-21T07:44:34;1.40;;;0.20;;
82637;SDS011;72318;36.628;-121.932;2023-11-21T07:47:00;1.83;;;0.70;;
82637;SDS011;72318;36.628;-121.932;2023-11-21T07:49:27;5.93;;;3.05;;
82637;SDS011;72318;36.628;-121.932;2023-11-21T07:51:53;13.43;;;8.57;;
82637;SDS011;72318;36.628;-121.932;2023-11-21T07:54:22;14.40;;;7.88;;
82637;SDS011;72318;36.628;-121.932;2023-11-21T07:56:49;7.40;;;3.20;;
82637;SDS011;72318;36.628;-121.932;2023-11-21T07:59:15;5.88;;;3.28;;
82637;SDS011;72318;36.628;-121.932;2023-11-21T08:01:43;6.30;;;3.28;;
82637;SDS011;72318;36.628;-121.932;2023-11-21T08:04:11;4.10;;;1.05;;
82637;SDS011;72318;36.628;-121.932;2023-11-21T08:06:40;6.72;;;2.60;;
82637;SDS011;72318;36.628;-121.932;2023-11-21T08:09:07;10.95;;;3.75;;
82637;SDS011;72318;36.628;-121.932;2023-11-21T08:11:33;11.27;;;2.90;;
82637;SDS011;72318;36.628;-121.932;2023-11-21T08:14:00;9.38;;;2.30;;
82637;SDS011;72318;36.628;-121.932;2023-11-21T08:16:27;6.13;;;1.08;;
82637;SDS011;72318;36.628;-121.932;2023-11-21T08:18:53;4.90;;;1.20;;
82637;SDS011;72318;36.628;-121.932;2023-11-21T08:21:19;5.53;;;0.85;;
82637;SDS011;72318;36.628;-121.932;2023-11-21T08:23:46;6.07;;;1.10;;
82637;SDS011;72318;36.628;-121.932;2023-11-21T08:26:18;6.95;;;0.77;;
82637;SDS011;72318;36.628;-121.932;2023-11-21T08:28:45;8.43;;;0.98;;
82637;SDS011;72318;36.628;-121.932;2023-11-21T08:31:12;5.38;;;1.30;;
82637;SDS011;72318;36.628;-121.932;2023-11-21T08:33:39;3.60;;;0.32;;
82637;SDS011;72318;36.628;-121.932;2023-11-21T08:36:08;6.55;;;0.88;;
82637;SDS011;72318;36.628;-121.932;2023-11-21T08:38:36;4.55;;;0.32;;
82637;SDS011;72318;36.628;-121.932;2023-11-21T08:41:05;5.80;;;0.65;;
82637;SDS011;72318;36.628;-121.932;2023-11-21T08:43:36;3.45;;;0.70;;
82637;SDS011;72318;36.628;-121.932;2023-11-21T08:46:08;5.75;;;1.63;;
82637;SDS011;72318;36.628;-121.932;2023-11-21T08:48:35;5.45;;;2.20;;
82637;SDS011;72318;36.628;-121.932;2023-11-21T08:51:02;10.77;;;2.47;;
82637;SDS011;72318;36.628;-121.932;2023-11-21T08:53:30;4.95;;;1.65;;
82637;SDS011;72318;36.628;-121.932;2023-11-21T08:55:56;6.60;;;2.13;;
82637;SDS011;72318;36.628;-121.932;2023-11-21T08:58:22;4.75;;;1.67;;
82637;SDS011;72318;36.628;-121.932;2023-11-21T09:00:49;3.08;;;1.40;;
82637;SDS011;72318;36.628;-121.932;2023-11-21T09:03:15;4.75;;;1.20;;
82637;SDS011;72318;36.628;-121.932;2023-11-21T09:05:41;6.05;;;1.02;;
82637;SDS011;72318;36.628;-121.932;2023-11-21T09:08:07;9.95;;;3.40;;
82637;SDS011;72318;36.628;-121.932;2023-11-21T09:20:39;5.47;;;0.65;;
82637;SDS011;72318;36.628;-121.932;2023-11-21T09:23:05;3.38;;;2.15;;
82637;SDS011;72318;36.628;-121.932;2023-11-21T09:25:32;4.32;;;0.50;;
82637;SDS011;72318;36.628;-121.932;2023-11-21T09:27:59;5.10;;;0.55;;
82637;SDS011;72318;36.628;-121.932;2023-11-21T09:30:25;5.60;;;0.40;;
82637;SDS011;72318;36.628;-121.932;2023-11-21T09:32:51;4.80;;;0.68;;
82637;SDS011;72318;36.628;-121.932;2023-11-21T09:35:17;7.60;;;0.77;;
82637;SDS011;72318;36.628;-121.932;2023-11-21T09:37:44;4.53;;;0.70;;
82637;SDS011;72318;36.628;-121.932;2023-11-21T09:40:11;9.85;;;1.00;;
82637;SDS011;72318;36.628;-121.932;2023-11-21T09:42:49;4.90;;;0.47;;
82637;SDS011;72318;36.628;-121.932;2023-11-21T09:45:21;8.32;;;0.68;;
82637;SDS011;72318;36.628;-121.932;2023-11-21T09:47:59;9.48;;;0.68;;
82637;SDS011;72318;36.628;-121.932;2023-11-21T09:50:26;6.28;;;1.10;;
82637;SDS011;72318;36.628;-121.932;2023-11-21T09:55:32;12.88;;;1.30;;
82637;SDS011;72318;36.628;-121.932;2023-11-21T09:58:04;10.60;;;0.82;;
82637;SDS011;72318;36.628;-121.932;2023-11-21T10:00:33;5.88;;;1.02;;
82637;SDS011;72318;36.628;-121.932;2023-11-21T10:03:00;7.30;;;0.57;;
82637;SDS011;72318;36.628;-121.932;2023-11-21T10:05:28;7.78;;;0.70;;
82637;SDS011;72318;36.628;-121.932;2023-11-21T10:07:54;6.80;;;1.33;;
82637;SDS011;72318;36.628;-121.932;2023-11-21T10:10:25;9.80;;;1.55;;
82637;SDS011;72318;36.628;-121.932;2023-11-21T10:12:57;13.07;;;1.48;;
82637;SDS011;72318;36.628;-121.932;2023-11-21T10:15:31;6.20;;;0.60;;
82637;SDS011;72318;36.628;-121.932;2023-11-21T10:18:01;6.82;;;0.85;;
82637;SDS011;72318;36.628;-121.932;2023-11-21T10:20:30;8.40;;;0.73;;
82637;SDS011;72318;36.628;-121.932;2023-11-21T10:22:57;9.80;;;0.50;;
82637;SDS011;72318;36.628;-121.932;2023-11-21T10:25:23;6.47;;;0.90;;
82637;SDS011;72318;36.628;-121.932;2023-11-21T10:27:55;5.47;;;0.70;;
82637;SDS011;72318;36.628;-121.932;2023-11-21T10:30:32;5.13;;;0.60;;
82637;SDS011;72318;36.628;-121.932;2023-11-21T10:33:02;9.85;;;0.47;;
82637;SDS011;72318;36.628;-121.932;2023-11-21T10:38:12;6.38;;;1.17;;
82637;SDS011;72318;36.628;-121.932;2023-11-21T10:40:43;9.85;;;1.13;;
82637;SDS011;72318;36.628;-121.932;2023-11-21T10:43:11;7.43;;;1.88;;
82637;SDS011;72318;36.628;-121.932;2023-11-21T10:45:41;11.73;;;0.63;;
82637;SDS011;72318;36.628;-121.932;2023-11-21T10:48:08;8.93;;;0.65;;
82637;SDS011;72318;36.628;-121.932;2023-11-21T10:50:42;7.82;;;0.40;;
82637;SDS011;72318;36.628;-121.932;2023-11-21T10:53:11;5.20;;;0.70;;
82637;SDS011;72318;36.628;-121.932;2023-11-21T10:55:38;9.20;;;0.88;;
82637;SDS011;72318;36.628;-121.932;2023-11-21T10:58:05;5.50;;;0.55;;
82637;SDS011;72318;36.628;-121.932;2023-11-21T11:00:33;13.80;;;0.82;;
82637;SDS011;72318;36.628;-121.932;2023-11-21T11:02:59;8.77;;;0.65;;
82637;SDS011;72318;36.628;-121.932;2023-11-21T11:05:27;7.00;;;0.75;;
82637;SDS011;72318;36.628;-121.932;2023-11-21T11:08:04;6.93;;;0.32;;
82637;SDS011;72318;36.628;-121.932;2023-11-21T11:10:31;8.75;;;0.60;;
82637;SDS011;72318;36.628;-121.932;2023-11-21T11:12:58;5.28;;;0.52;;
82637;SDS011;72318;36.628;-121.932;2023-11-21T11:15:25;6.28;;;1.88;;
82637;SDS011;72318;36.628;-121.932;2023-11-21T11:17:52;6.55;;;0.30;;
82637;SDS011;72318;36.628;-121.932;2023-11-21T11:20:23;3.20;;;0.25;;
82637;SDS011;72318;36.628;-121.932;2023-11-21T11:39:36;7.68;;;1.20;;
82637;SDS011;72318;36.628;-121.932;2023-11-21T11:42:05;7.72;;;1.13;;
82637;SDS011;72318;36.628;-121.932;2023-11-21T11:52:42;12.15;;;1.73;;
82637;SDS011;72318;36.628;-121.932;2023-11-21T11:55:11;7.82;;;1.08;;
82637;SDS011;72318;36.628;-121.932;2023-11-21T11:57:45;5.15;;;0.75;;
82637;SDS011;72318;36.628;-121.932;2023-11-21T12:00:16;7.95;;;0.93;;
82637;SDS011;72318;36.628;-121.932;2023-11-21T12:03:06;10.02;;;1.25;;
82637;SDS011;72318;36.628;-121.932;2023-11-21T12:05:34;6.75;;;1.23;;
82637;SDS011;72318;36.628;-121.932;2023-11-21T12:08:04;9.43;;;1.00;;
82637;SDS011;72318;36.628;-121.932;2023-11-21T12:10:35;7.22;;;0.68;;
82637;SDS011;72318;36.628;-121.932;2023-11-21T12:13:08;6.28;;;0.30;;
82637;SDS011;72318;36.628;-121.932;2023-11-21T12:15:35;15.20;;;0.93;;
82637;SDS011;72318;36.628;-121.932;2023-11-21T12:18:02;7.97;;;1.17;;
82637;SDS011;72318;36.628;-121.932;2023-11-21T12:20:29;11.07;;;1.08;;
82637;SDS011;72318;36.628;-121.932;2023-11-21T12:22:57;10.82;;;1.15;;
82637;SDS011;72318;36.628;-121.932;2023-11-21T12:25:29;6.45;;;0.57;;
82637;SDS011;72318;36.628;-121.932;2023-11-21T12:27:59;9.57;;;0.88;;
82637;SDS011;72318;36.628;-121.932;2023-11-21T12:30:30;5.60;;;0.73;;
82637;SDS011;72318;36.628;-121.932;2023-11-21T12:33:03;7.40;;;0.35;;
82637;SDS011;72318;36.628;-121.932;2023-11-21T12:35:32;6.55;;;0.88;;
82637;SDS011;72318;36.628;-121.932;2023-11-21T12:37:59;7.63;;;0.22;;
82637;SDS011;72318;36.628;-121.932;2023-11-21T12:42:56;8.18;;;1.23;;
82637;SDS011;72318;36.628;-121.932;2023-11-21T12:45:25;5.90;;;0.50;;
82637;SDS011;72318;36.628;-121.932;2023-11-21T12:47:56;9.48;;;0.63;;
82637;SDS011;72318;36.628;-121.932;2023-11-21T12:50:26;5.07;;;1.30;;
82637;SDS011;72318;36.628;-121.932;2023-11-21T12:53:01;3.85;;;0.70;;
82637;SDS011;72318;36.628;-121.932;2023-11-21T12:55:30;5.28;;;0.47;;
82637;SDS011;72318;36.628;-121.932;2023-11-21T12:57:58;1.58;;;0.10;;
82637;SDS011;72318;36.628;-121.932;2023-11-21T13:00:46;4.50;;;0.20;;
82637;SDS011;72318;36.628;-121.932;2023-11-21T13:03:14;2.58;;;0.43;;
82637;SDS011;72318;36.628;-121.932;2023-11-21T13:05:43;4.68;;;0.60;;
82637;SDS011;72318;36.628;-121.932;2023-11-21T13:08:11;2.97;;;0.10;;
82637;SDS011;72318;36.628;-121.932;2023-11-21T13:10:39;3.58;;;0.40;;
82637;SDS011;72318;36.628;-121.932;2023-11-21T13:13:08;5.82;;;0.20;;
82637;SDS011;72318;36.628;-121.932;2023-11-21T13:15:39;5.85;;;1.65;;
82637;SDS011;72318;36.628;-121.932;2023-11-21T13:18:06;4.18;;;0.60;;
82637;SDS011;72318;36.628;-121.932;2023-11-21T13:20:32;5.60;;;0.63;;
82637;SDS011;72318;36.628;-121.932;2023-11-21T13:22:59;5.03;;;0.40;;
82637;SDS011;72318;36.628;-121.932;2023-11-21T13:25:29;5.38;;;0.90;;
82637;SDS011;72318;36.628;-121.932;2023-11-21T13:30:24;7.35;;;0.52;;
82637;SDS011;72318;36.628;-121.932;2023-11-21T13:33:02;5.68;;;0.50;;
82637;SDS011;72318;36.628;-121.932;2023-11-21T13:35:32;8.38;;;0.85;;
82637;SDS011;72318;36.628;-121.932;2023-11-21T13:38:13;5.97;;;0.88;;
82637;SDS011;72318;36.628;-121.932;2023-11-21T13:40:46;4.05;;;0.93;;
82637;SDS011;72318;36.628;-121.932;2023-11-21T13:43:17;7.80;;;1.02;;
82637;SDS011;72318;36.628;-121.932;2023-11-21T13:45:46;4.65;;;1.58;;
82637;SDS011;72318;36.628;-121.932;2023-11-21T13:48:17;4.30;;;0.70;;
82637;SDS011;72318;36.628;-121.932;2023-11-21T13:50:50;3.40;;;0.47;;
82637;SDS011;72318;36.628;-121.932;2023-11-21T13:53:35;2.88;;;1.30;;
82637;SDS011;72318;36.628;-121.932;2023-11-21T13:56:03;4.03;;;0.38;;
82637;SDS011;72318;36.628;-121.932;2023-11-21T13:58:29;2.38;;;0.20;;
82637;SDS011;72318;36.628;-121.932;2023-11-21T14:01:16;3.28;;;0.38;;
82637;SDS011;72318;36.628;-121.932;2023-11-21T14:03:59;5.00;;;0.45;;
82637;SDS011;72318;36.628;-121.932;2023-11-21T14:06:48;1.05;;;0.20;;
82637;SDS011;72318;36.628;-121.932;2023-11-21T14:09:17;0.98;;;0.10;;
82637;SDS011;72318;36.628;-121.932;2023-11-21T14:14:28;2.45;;;0.38;;
82637;SDS011;72318;36.628;-121.932;2023-11-21T14:16:54;1.80;;;0.00;;
82637;SDS011;72318;36.628;-121.932;2023-11-21T14:19:32;1.90;;;0.35;;
82637;SDS011;72318;36.628;-121.932;2023-11-21T14:21:59;0.30;;;0.20;;
82637;SDS011;72318;36.628;-121.932;2023-11-21T14:24:26;3.83;;;0.70;;
82637;SDS011;72318;36.628;-121.932;2023-11-21T14:26:54;3.28;;;0.10;;
82637;SDS011;72318;36.628;-121.932;2023-11-21T14:29:21;0.77;;;0.13;;
82637;SDS011;72318;36.628;-121.932;2023-11-21T14:31:49;1.73;;;0.22;;
82637;SDS011;72318;36.628;-121.932;2023-11-21T14:34:16;1.52;;;0.32;;
82637;SDS011;72318;36.628;-121.932;2023-11-21T14:36:43;1.80;;;0.20;;
82637;SDS011;72318;36.628;-121.932;2023-11-21T14:39:10;4.82;;;0.22;;
82637;SDS011;72318;36.628;-121.932;2023-11-21T14:41:48;5.38;;;0.55;;
82637;SDS011;72318;36.628;-121.932;2023-11-21T14:44:15;5.18;;;0.28;;
82637;SDS011;72318;36.628;-121.932;2023-11-21T14:46:42;3.30;;;0.20;;
82637;SDS011;72318;36.628;-121.932;2023-11-21T14:49:11;3.50;;;0.77;;
82637;SDS011;72318;36.628;-121.932;2023-11-21T14:51:49;9.18;;;0.63;;
82637;SDS011;72318;36.628;-121.932;2023-11-21T14:54:29;1.83;;;0.65;;
82637;SDS011;72318;36.628;-121.932;2023-11-21T14:57:08;6.40;;;0.45;;
82637;SDS011;72318;36.628;-121.932;2023-11-21T14:59:44;5.50;;;0.30;;
82637;SDS011;72318;36.628;-121.932;2023-11-21T15:02:20;4.18;;;0.20;;
82637;SDS011;72318;36.628;-121.932;2023-11-21T15:05:06;0.88;;;0.20;;